createdAt,value
2022-12-27T00:00:15.737Z,74.56
2022-12-27T00:03:04.980Z,74.55
2022-12-27T00:05:34.033Z,74.49
2022-12-27T00:08:03.152Z,74.34
2022-12-27T00:10:32.201Z,74.25
2022-12-27T00:13:01.158Z,74.40
2022-12-27T00:15:30.629Z,74.45
2022-12-27T00:17:59.703Z,74.23
2022-12-27T00:20:28.729Z,74.22
2022-12-27T00:23:01.521Z,74.28
2022-12-27T00:25:30.657Z,74.16
2022-12-27T00:27:59.654Z,74.15
2022-12-27T00:30:28.640Z,74.12
2022-12-27T00:32:57.619Z,74.15
2022-12-27T00:35:26.687Z,74.23
2022-12-27T00:37:55.621Z,74.18
2022-12-27T00:40:24.612Z,74.15
2022-12-27T00:42:53.551Z,74.15
2022-12-27T00:45:22.671Z,74.18
2022-12-27T00:47:52.227Z,74.11
2022-12-27T00:50:21.266Z,74.03
2022-12-27T00:52:50.327Z,74.08
2022-12-27T00:55:19.665Z,74.10
2022-12-27T00:57:48.721Z,74.07
2022-12-27T01:00:17.914Z,74.03
2022-12-27T01:02:47.715Z,74.12
2022-12-27T01:05:16.997Z,74.18
2022-12-27T01:07:46.778Z,74.05
2022-12-27T01:10:16.144Z,74.09
2022-12-27T01:12:45.160Z,74.08
2022-12-27T01:15:14.264Z,74.08
2022-12-27T01:17:43.252Z,74.08
2022-12-27T01:20:14.610Z,74.02
2022-12-27T01:22:43.657Z,74.17
2022-12-27T01:25:12.717Z,74.31
2022-12-27T01:27:41.736Z,74.45
2022-12-27T01:30:12.138Z,74.88
2022-12-27T01:32:41.141Z,74.86
2022-12-27T01:35:10.217Z,74.63
2022-12-27T01:37:39.248Z,74.56
2022-12-27T01:40:09.647Z,74.44
2022-12-27T01:42:53.598Z,74.40
2022-12-27T01:45:28.825Z,74.34
2022-12-27T01:48:25.437Z,74.43
2022-12-27T01:51:04.409Z,74.20
2022-12-27T01:53:39.567Z,74.02
2022-12-27T01:56:19.623Z,73.91
2022-12-27T01:58:53.454Z,73.90
2022-12-27T02:01:28.205Z,73.93
2022-12-27T02:04:06.903Z,73.95
2022-12-27T02:06:38.429Z,73.84
2022-12-27T02:09:22.314Z,73.66
2022-12-27T02:11:57.107Z,73.55
2022-12-27T02:14:49.184Z,73.34
2022-12-27T02:17:28.051Z,73.05
2022-12-27T02:20:22.896Z,72.91
2022-12-27T02:23:53.859Z,72.88
2022-12-27T02:26:47.995Z,72.86
2022-12-27T02:29:54.918Z,72.92
2022-12-27T02:32:55.112Z,72.84
2022-12-27T02:35:31.515Z,72.94
2022-12-27T02:38:33.109Z,72.81
2022-12-27T02:41:25.729Z,72.90
2022-12-27T02:44:15.213Z,72.73
2022-12-27T02:47:03.764Z,72.66
2022-12-27T02:49:59.245Z,72.53
2022-12-27T02:52:49.667Z,72.48
2022-12-27T02:56:20.687Z,72.33
2022-12-27T02:59:59.329Z,72.12
2022-12-27T03:03:24.163Z,71.97
2022-12-27T03:06:27.062Z,71.58
2022-12-27T03:09:50.711Z,71.37
2022-12-27T03:12:59.191Z,71.23
2022-12-27T03:15:55.557Z,71.19
2022-12-27T03:18:44.487Z,71.17
2022-12-27T03:21:41.699Z,71.14
2022-12-27T03:24:31.081Z,70.82
2022-12-27T03:27:02.366Z,70.68
2022-12-27T03:29:50.288Z,70.41
2022-12-27T03:32:40.602Z,70.16
2022-12-27T03:35:21.432Z,70.14
2022-12-27T03:38:04.077Z,70.03
2022-12-27T03:41:19.620Z,70.06
2022-12-27T03:43:50.725Z,70.03
2022-12-27T03:46:36.022Z,70.13
2022-12-27T03:49:31.363Z,70.09
2022-12-27T03:52:16.949Z,70.14
2022-12-27T03:54:49.852Z,70.10
2022-12-27T03:57:23.397Z,70.11
2022-12-27T03:59:53.291Z,70.03
2022-12-27T04:02:22.597Z,69.88
2022-12-27T04:04:52.781Z,69.80
2022-12-27T04:07:22.847Z,69.69
2022-12-27T04:10:10.201Z,69.61
2022-12-27T04:12:57.909Z,69.58
2022-12-27T04:15:45.354Z,69.55
2022-12-27T04:18:32.834Z,69.47
2022-12-27T04:21:20.227Z,69.42
2022-12-27T04:24:07.507Z,69.37
2022-12-27T04:26:54.830Z,69.36
2022-12-27T04:29:42.475Z,69.12
2022-12-27T04:32:36.099Z,69.15
2022-12-27T04:35:05.826Z,69.13
2022-12-27T04:37:34.789Z,69.02
2022-12-27T04:40:42.661Z,68.94
2022-12-27T04:43:30.444Z,68.88
2022-12-27T04:46:18.394Z,68.78
2022-12-27T04:49:05.835Z,68.76
2022-12-27T04:51:53.551Z,68.86
2022-12-27T04:54:43.116Z,68.83
2022-12-27T04:57:12.172Z,68.84
2022-12-27T04:59:59.812Z,68.78
2022-12-27T05:02:29.519Z,68.73
2022-12-27T05:04:59.010Z,68.67
2022-12-27T05:07:46.906Z,68.67
2022-12-27T05:10:34.852Z,68.62
2022-12-27T05:13:23.437Z,68.49
2022-12-27T05:15:52.454Z,68.44
2022-12-27T05:18:21.587Z,68.38
2022-12-27T05:20:50.917Z,68.37
2022-12-27T05:23:38.457Z,68.43
2022-12-27T05:26:07.538Z,68.46
2022-12-27T05:28:36.645Z,68.43
2022-12-27T05:31:05.602Z,68.61
2022-12-27T05:33:34.637Z,68.57
2022-12-27T05:36:03.731Z,68.55
2022-12-27T05:38:33.983Z,68.50
2022-12-27T05:41:04.137Z,68.51
2022-12-27T05:43:35.594Z,68.50
2022-12-27T05:46:11.354Z,68.54
2022-12-27T05:48:40.945Z,68.47
2022-12-27T05:51:29.013Z,68.50
2022-12-27T05:53:58.181Z,68.54
2022-12-27T05:56:27.238Z,68.49
2022-12-27T05:58:56.225Z,68.49
2022-12-27T06:01:25.703Z,68.60
2022-12-27T06:03:54.834Z,68.55
2022-12-27T06:06:23.806Z,68.53
2022-12-27T06:08:52.875Z,68.52
2022-12-27T06:11:21.906Z,68.47
2022-12-27T06:13:53.912Z,68.64
2022-12-27T06:16:23.212Z,68.62
2022-12-27T06:18:53.251Z,68.75
2022-12-27T06:21:22.570Z,68.78
2022-12-27T06:23:51.635Z,68.80
2022-12-27T06:26:27.960Z,68.79
2022-12-27T06:28:58.767Z,68.71
2022-12-27T06:31:28.331Z,68.65
2022-12-27T06:33:57.718Z,68.76
2022-12-27T06:36:29.629Z,68.73
2022-12-27T06:38:59.931Z,68.67
2022-12-27T06:41:28.997Z,68.67
2022-12-27T06:43:58.552Z,68.71
2022-12-27T06:46:27.631Z,68.69
2022-12-27T06:48:57.367Z,68.61
2022-12-27T06:51:26.390Z,68.52
2022-12-27T06:53:55.576Z,68.44
2022-12-27T06:56:24.568Z,68.42
2022-12-27T06:58:54.639Z,68.31
2022-12-27T07:01:27.070Z,68.43
2022-12-27T07:04:00.178Z,68.50
2022-12-27T07:06:32.105Z,68.54
2022-12-27T07:09:01.914Z,68.65
2022-12-27T07:11:37.313Z,68.72
2022-12-27T07:14:09.730Z,68.79
2022-12-27T07:16:38.945Z,68.82
2022-12-27T07:19:10.368Z,68.79
2022-12-27T07:21:39.398Z,68.77
2022-12-27T07:24:08.662Z,68.86
2022-12-27T07:26:37.750Z,69.00
2022-12-27T07:29:06.784Z,68.95
2022-12-27T07:31:35.924Z,69.01
2022-12-27T07:34:04.979Z,69.08
2022-12-27T07:36:38.113Z,69.04
2022-12-27T07:39:08.586Z,69.15
2022-12-27T07:41:37.817Z,69.44
2022-12-27T07:44:07.048Z,69.33
2022-12-27T07:46:36.305Z,69.20
2022-12-27T07:49:05.389Z,69.15
2022-12-27T07:51:34.441Z,69.13
2022-12-27T07:54:04.056Z,69.14
2022-12-27T07:56:33.239Z,69.17
2022-12-27T07:59:02.901Z,69.23
2022-12-27T08:02:02.131Z,69.32
2022-12-27T08:04:34.778Z,69.35
2022-12-27T08:07:15.170Z,69.36
2022-12-27T08:09:47.221Z,69.41
2022-12-27T08:12:18.987Z,69.45
2022-12-27T08:14:48.037Z,69.42
2022-12-27T08:17:30.141Z,69.34
2022-12-27T08:19:59.181Z,69.31
2022-12-27T08:22:29.046Z,69.22
2022-12-27T08:24:58.058Z,69.06
2022-12-27T08:27:27.970Z,69.17
2022-12-27T08:29:57.050Z,69.20
2022-12-27T08:32:29.244Z,69.31
2022-12-27T08:35:11.989Z,69.50
2022-12-27T08:37:48.896Z,69.81
2022-12-27T08:40:17.947Z,69.46
2022-12-27T08:42:47.226Z,69.32
2022-12-27T08:45:16.603Z,69.10
2022-12-27T08:47:45.871Z,68.94
2022-12-27T08:50:15.073Z,69.07
2022-12-27T08:52:44.283Z,69.17
2022-12-27T08:55:13.432Z,68.97
2022-12-27T08:57:42.598Z,68.81
2022-12-27T09:00:12.979Z,68.73
2022-12-27T09:02:43.979Z,68.80
2022-12-27T09:05:13.428Z,68.81
2022-12-27T09:07:42.480Z,68.74
2022-12-27T09:10:11.531Z,68.25
2022-12-27T09:12:40.758Z,67.66
2022-12-27T09:15:10.449Z,67.42
2022-12-27T09:17:40.401Z,67.39
2022-12-27T09:20:15.193Z,67.22
2022-12-27T09:22:44.324Z,67.25
2022-12-27T09:25:13.724Z,67.09
2022-12-27T09:27:42.910Z,66.98
2022-12-27T09:30:12.276Z,67.01
2022-12-27T09:32:41.293Z,67.09
2022-12-27T09:35:10.333Z,67.05
2022-12-27T09:37:39.345Z,67.09
2022-12-27T09:40:14.539Z,67.15
2022-12-27T09:43:19.089Z,67.34
2022-12-27T09:45:56.518Z,68.00
2022-12-27T09:48:36.937Z,67.86
2022-12-27T09:51:22.490Z,67.19
2022-12-27T09:54:13.054Z,67.04
2022-12-27T09:57:10.009Z,66.86
2022-12-27T09:59:43.392Z,66.19
2022-12-27T10:02:23.489Z,65.80
2022-12-27T10:08:09.707Z,65.19
2022-12-27T10:10:57.324Z,65.16
2022-12-27T10:13:41.363Z,65.35
2022-12-27T10:17:03.763Z,65.53
2022-12-27T10:20:22.697Z,65.57
2022-12-27T10:23:17.515Z,65.43
2022-12-27T10:25:47.678Z,65.38
2022-12-27T10:28:25.718Z,65.33
2022-12-27T10:30:55.750Z,65.29
2022-12-27T10:33:31.380Z,65.28
2022-12-27T10:36:16.552Z,65.33
2022-12-27T10:38:45.848Z,65.17
2022-12-27T10:42:14.462Z,65.21
2022-12-27T10:44:44.805Z,65.31
2022-12-27T10:47:14.034Z,65.04
2022-12-27T10:50:09.247Z,65.09
2022-12-27T10:52:38.723Z,65.35
2022-12-27T10:55:41.140Z,65.17
2022-12-27T10:58:31.447Z,64.91
2022-12-27T11:01:00.645Z,64.94
2022-12-27T11:03:32.104Z,64.98
2022-12-27T11:06:26.290Z,65.02
2022-12-27T11:08:55.370Z,65.10
2022-12-27T11:11:27.470Z,64.88
2022-12-27T11:14:11.969Z,64.92
2022-12-27T11:16:41.878Z,65.16
2022-12-27T11:19:25.030Z,65.16
2022-12-27T11:21:55.573Z,65.11
2022-12-27T11:24:24.694Z,64.94
2022-12-27T11:26:59.316Z,64.88
2022-12-27T11:29:32.281Z,64.90
2022-12-27T11:32:08.562Z,64.76
2022-12-27T11:34:43.346Z,64.41
2022-12-27T11:37:17.185Z,64.39
2022-12-27T11:39:49.720Z,64.32
2022-12-27T11:42:44.864Z,64.23
2022-12-27T11:45:34.431Z,64.16
2022-12-27T11:48:26.015Z,64.32
2022-12-27T11:51:46.738Z,64.38
2022-12-27T11:54:37.426Z,64.54
2022-12-27T11:57:21.168Z,64.22
2022-12-27T12:00:22.178Z,64.08
2022-12-27T12:03:39.787Z,64.12
2022-12-27T12:06:34.413Z,64.01
2022-12-27T12:09:28.309Z,64.01
2022-12-27T12:12:03.257Z,64.29
2022-12-27T12:14:50.291Z,64.14
2022-12-27T12:17:40.327Z,63.97
2022-12-27T12:20:21.001Z,63.84
2022-12-27T12:23:40.436Z,63.72
2022-12-27T12:26:21.952Z,63.65
2022-12-27T12:29:18.822Z,63.82
2022-12-27T12:32:15.456Z,63.60
2022-12-27T12:35:16.750Z,63.24
2022-12-27T12:38:33.040Z,63.19
2022-12-27T12:41:14.755Z,63.27
2022-12-27T12:43:49.730Z,63.28
2022-12-27T12:47:01.399Z,63.19
2022-12-27T12:49:55.340Z,63.00
2022-12-27T12:53:04.050Z,62.94
2022-12-27T12:56:00.098Z,63.10
2022-12-27T12:58:38.170Z,63.12
2022-12-27T13:02:00.800Z,63.07
2022-12-27T13:04:48.757Z,63.15
2022-12-27T13:07:44.236Z,63.27
2022-12-27T13:10:37.883Z,63.30
2022-12-27T13:13:20.850Z,63.23
2022-12-27T13:15:59.185Z,63.13
2022-12-27T13:19:06.414Z,62.98
2022-12-27T13:22:24.563Z,62.83
2022-12-27T13:25:22.034Z,62.76
2022-12-27T13:28:23.858Z,62.59
2022-12-27T13:31:26.954Z,62.59
2022-12-27T13:34:20.593Z,62.42
2022-12-27T13:37:21.102Z,62.59
2022-12-27T13:40:29.815Z,62.71
2022-12-27T13:43:27.125Z,62.67
2022-12-27T13:46:42.632Z,62.69
2022-12-27T13:49:37.114Z,62.65
2022-12-27T13:52:28.711Z,62.77
2022-12-27T13:55:36.220Z,62.79
2022-12-27T13:58:35.673Z,62.84
2022-12-27T14:01:29.783Z,62.96
2022-12-27T14:04:23.891Z,62.86
2022-12-27T14:07:37.110Z,62.81
2022-12-27T14:10:37.040Z,62.88
2022-12-27T14:13:10.963Z,62.92
2022-12-27T14:15:42.805Z,62.86
2022-12-27T14:18:39.784Z,62.88
2022-12-27T14:21:24.012Z,62.94
2022-12-27T14:24:01.825Z,62.91
2022-12-27T14:26:46.157Z,62.94
2022-12-27T14:29:56.705Z,63.05
2022-12-27T14:33:06.033Z,62.97
2022-12-27T14:36:35.597Z,63.05
2022-12-27T14:40:00.918Z,63.08
2022-12-27T14:43:13.979Z,63.26
2022-12-27T14:46:34.767Z,63.36
2022-12-27T14:49:34.828Z,63.38
2022-12-27T14:52:38.510Z,63.36
2022-12-27T14:55:34.901Z,63.54
2022-12-27T14:58:28.400Z,63.60
2022-12-27T15:01:16.468Z,63.70
2022-12-27T15:04:22.046Z,63.68
2022-12-27T15:07:00.110Z,63.72
2022-12-27T15:10:02.305Z,63.68
2022-12-27T15:13:12.861Z,63.81
2022-12-27T15:16:23.102Z,63.84
2022-12-27T15:19:21.045Z,63.92
2022-12-27T15:22:17.149Z,64.08
2022-12-27T15:25:32.683Z,64.04
2022-12-27T15:28:22.475Z,64.11
2022-12-27T15:31:26.225Z,64.20
2022-12-27T15:34:16.291Z,64.39
2022-12-27T15:36:49.363Z,64.47
2022-12-27T15:39:33.702Z,64.53
2022-12-27T15:42:38.783Z,64.54
2022-12-27T15:45:37.794Z,64.49
2022-12-27T15:48:25.106Z,64.46
2022-12-27T15:51:20.392Z,64.51
2022-12-27T15:54:24.901Z,64.57
2022-12-27T15:57:17.382Z,64.56
2022-12-27T15:59:53.057Z,64.59
2022-12-27T16:02:29.366Z,64.79
2022-12-27T16:05:03.023Z,64.72
2022-12-27T16:07:45.749Z,64.86
2022-12-27T16:10:32.768Z,64.99
2022-12-27T16:13:39.350Z,65.13
2022-12-27T16:16:40.215Z,65.25
2022-12-27T16:19:42.111Z,65.19
2022-12-27T16:22:39.889Z,65.39
2022-12-27T16:25:41.006Z,65.46
2022-12-27T16:28:15.847Z,65.49
2022-12-27T16:30:49.551Z,65.55
2022-12-27T16:33:27.455Z,65.59
2022-12-27T16:36:16.512Z,65.72
2022-12-27T16:39:14.270Z,65.77
2022-12-27T16:41:55.305Z,65.74
2022-12-27T16:44:44.569Z,65.94
2022-12-27T16:47:40.685Z,66.05
2022-12-27T16:50:47.375Z,65.97
2022-12-27T16:53:21.999Z,65.82
2022-12-27T16:56:22.432Z,65.93
2022-12-27T16:58:52.086Z,65.99
2022-12-27T17:01:50.279Z,65.94
2022-12-27T17:04:54.625Z,65.94
2022-12-27T17:07:42.259Z,65.91
2022-12-27T17:10:35.026Z,65.89
2022-12-27T17:13:48.311Z,66.00
2022-12-27T17:16:24.679Z,65.90
2022-12-27T17:19:02.782Z,65.75
2022-12-27T17:21:36.407Z,65.74
2022-12-27T17:24:18.972Z,65.82
2022-12-27T17:27:12.905Z,65.87
2022-12-27T17:30:12.602Z,65.75
2022-12-27T17:33:05.824Z,65.67
2022-12-27T17:35:55.952Z,65.61
2022-12-27T17:38:55.419Z,65.54
2022-12-27T17:41:47.080Z,65.39
2022-12-27T17:44:40.383Z,65.26
2022-12-27T17:47:56.405Z,65.27
2022-12-27T17:50:30.887Z,65.25
2022-12-27T17:53:43.581Z,65.18
2022-12-27T17:56:41.977Z,65.12
2022-12-27T17:59:13.991Z,65.05
2022-12-27T18:01:49.266Z,64.98
2022-12-27T18:04:53.021Z,64.96
2022-12-27T18:07:29.923Z,64.96
2022-12-27T18:10:27.126Z,64.95
2022-12-27T18:13:03.197Z,64.78
2022-12-27T18:15:36.661Z,64.88
2022-12-27T18:18:08.584Z,64.86
2022-12-27T18:20:40.615Z,64.87
2022-12-27T18:23:10.528Z,64.87
2022-12-27T18:25:45.378Z,64.84
2022-12-27T18:28:28.671Z,64.78
2022-12-27T18:31:19.859Z,64.80
2022-12-27T18:34:25.403Z,64.76
2022-12-27T18:37:09.377Z,64.75
2022-12-27T18:40:04.955Z,64.71
2022-12-27T18:42:49.297Z,64.66
2022-12-27T18:45:29.910Z,64.76
2022-12-27T18:48:04.639Z,64.75
2022-12-27T18:50:35.220Z,64.77
2022-12-27T18:53:07.200Z,64.69
2022-12-27T18:55:37.083Z,64.66
2022-12-27T18:58:20.429Z,64.56
2022-12-27T19:01:02.860Z,64.69
2022-12-27T19:03:38.234Z,64.70
2022-12-27T19:06:13.171Z,64.61
2022-12-27T19:08:51.044Z,64.59
2022-12-27T19:11:34.568Z,64.83
2022-12-27T19:14:05.814Z,64.71
2022-12-27T19:16:36.824Z,64.55
2022-12-27T19:19:20.863Z,64.45
2022-12-27T19:21:50.249Z,64.40
2022-12-27T19:24:32.785Z,64.41
2022-12-27T19:27:16.680Z,64.31
2022-12-27T19:29:51.807Z,64.23
2022-12-27T19:32:33.477Z,64.16
2022-12-27T19:35:04.555Z,64.29
2022-12-27T19:37:33.797Z,64.35
2022-12-27T19:40:03.862Z,64.27
2022-12-27T19:42:35.357Z,64.19
2022-12-27T19:45:04.890Z,64.16
2022-12-27T19:47:35.999Z,64.14
2022-12-27T19:50:05.355Z,64.29
2022-12-27T19:52:34.668Z,64.13
2022-12-27T19:55:12.580Z,64.08
2022-12-27T19:57:42.119Z,64.11
2022-12-27T20:00:18.293Z,64.14
2022-12-27T20:02:47.636Z,64.17
2022-12-27T20:05:17.862Z,64.31
2022-12-27T20:08:22.022Z,64.35
2022-12-27T20:10:52.391Z,64.40
2022-12-27T20:13:22.827Z,64.51
2022-12-27T20:15:55.737Z,64.52
2022-12-27T20:18:25.327Z,64.57
2022-12-27T20:20:54.752Z,64.60
2022-12-27T20:23:23.839Z,64.56
2022-12-27T20:25:52.844Z,64.69
2022-12-27T20:28:21.962Z,64.72
2022-12-27T20:30:50.915Z,64.90
2022-12-27T20:33:19.963Z,64.77
2022-12-27T20:35:59.406Z,64.78
2022-12-27T20:38:28.921Z,64.89
2022-12-27T20:41:09.066Z,65.15
2022-12-27T20:43:39.265Z,65.16
2022-12-27T20:46:11.797Z,65.20
2022-12-27T20:48:44.479Z,65.27
2022-12-27T20:51:24.131Z,65.27
2022-12-27T20:54:00.277Z,65.33
2022-12-27T20:56:32.276Z,65.44
2022-12-27T20:59:02.051Z,65.54
2022-12-27T21:01:31.121Z,65.60
2022-12-27T21:04:00.413Z,65.74
2022-12-27T21:06:29.706Z,65.75
2022-12-27T21:08:58.780Z,65.81
2022-12-27T21:11:32.602Z,65.83
2022-12-27T21:14:04.360Z,65.93
2022-12-27T21:16:35.460Z,66.10
2022-12-27T21:19:06.574Z,66.23
2022-12-27T21:21:38.322Z,66.20
2022-12-27T21:24:10.873Z,66.44
2022-12-27T21:26:41.407Z,66.52
2022-12-27T21:29:12.309Z,66.53
2022-12-27T21:31:44.038Z,66.65
2022-12-27T21:34:13.014Z,66.56
2022-12-27T21:36:42.339Z,66.71
2022-12-27T21:39:11.587Z,66.75
2022-12-27T21:41:41.538Z,66.74
2022-12-27T21:44:10.861Z,66.64
2022-12-27T21:46:42.422Z,66.82
2022-12-27T21:49:13.560Z,66.90
2022-12-27T21:51:44.072Z,67.09
2022-12-27T21:54:14.097Z,67.12
2022-12-27T21:56:43.343Z,67.18
2022-12-27T21:59:12.484Z,67.27
2022-12-27T22:01:51.434Z,67.27
2022-12-27T22:04:22.055Z,67.35
2022-12-27T22:06:51.309Z,67.40
2022-12-27T22:09:20.367Z,67.29
2022-12-27T22:11:50.309Z,67.25
2022-12-27T22:14:24.939Z,67.39
2022-12-27T22:16:54.769Z,67.56
2022-12-27T22:19:23.786Z,67.63
2022-12-27T22:21:52.744Z,67.62
2022-12-27T22:24:21.743Z,67.69
2022-12-27T22:26:50.768Z,67.61
2022-12-27T22:29:21.719Z,67.74
2022-12-27T22:31:50.857Z,67.81
2022-12-27T22:34:20.968Z,67.98
2022-12-27T22:36:52.180Z,68.08
2022-12-27T22:39:21.288Z,68.11
2022-12-27T22:41:51.234Z,68.21
2022-12-27T22:44:28.442Z,68.23
2022-12-27T22:50:21.378Z,68.44
2022-12-27T22:53:10.026Z,68.61
2022-12-27T22:56:22.181Z,68.64
2022-12-27T22:59:09.418Z,68.78
2022-12-27T23:01:41.551Z,68.90
2022-12-27T23:04:14.203Z,68.94
2022-12-27T23:06:45.499Z,68.94
2022-12-27T23:09:15.083Z,68.94
2022-12-27T23:11:44.801Z,68.90
2022-12-27T23:14:18.477Z,69.09
2022-12-27T23:16:50.171Z,69.21
2022-12-27T23:19:24.424Z,69.24
2022-12-27T23:21:56.125Z,69.34
2022-12-27T23:24:25.690Z,69.41
2022-12-27T23:26:55.268Z,69.45
2022-12-27T23:29:25.039Z,69.48
2022-12-27T23:31:55.857Z,69.63
2022-12-27T23:34:28.943Z,69.69
2022-12-27T23:37:02.161Z,69.76
2022-12-27T23:39:34.499Z,69.81
2022-12-27T23:42:04.272Z,69.95
2022-12-27T23:44:35.014Z,69.88
2022-12-27T23:47:08.405Z,69.92
2022-12-27T23:49:38.271Z,69.86
2022-12-27T23:52:07.987Z,69.90
2022-12-27T23:54:37.644Z,69.88
2022-12-27T23:57:22.345Z,70.00
2022-12-27T23:59:54.788Z,70.04
